createdAt,value
2023-05-24T00:00:49.584Z,26.95
2023-05-24T00:01:49.593Z,26.97
2023-05-24T00:02:49.867Z,26.99
2023-05-24T00:03:49.725Z,27.00
2023-05-24T00:04:49.652Z,26.92
2023-05-24T00:05:49.590Z,26.99
2023-05-24T00:06:49.581Z,26.94
2023-05-24T00:07:49.610Z,26.97
2023-05-24T00:08:49.589Z,26.94
2023-05-24T00:09:49.590Z,26.94
2023-05-24T00:10:49.583Z,26.99
2023-05-24T00:11:49.595Z,26.89
2023-05-24T00:12:49.585Z,26.92
2023-05-24T00:13:49.594Z,26.97
2023-05-24T00:14:49.592Z,26.95
2023-05-24T00:15:49.596Z,26.99
2023-05-24T00:16:49.603Z,26.99
2023-05-24T00:17:49.619Z,26.92
2023-05-24T00:18:49.582Z,26.94
2023-05-24T00:19:49.619Z,26.92
2023-05-24T00:20:49.620Z,26.97
2023-05-24T00:21:49.589Z,26.95
2023-05-24T00:22:49.604Z,26.95
2023-05-24T00:23:49.620Z,26.95
2023-05-24T00:24:49.588Z,26.91
2023-05-24T00:25:49.590Z,26.95
2023-05-24T00:26:49.586Z,26.99
2023-05-24T00:27:49.591Z,26.95
2023-05-24T00:28:49.584Z,26.97
2023-05-24T00:29:49.592Z,26.99
2023-05-24T00:30:49.599Z,27.03
2023-05-24T00:31:49.593Z,27.07
2023-05-24T00:32:49.630Z,27.02
2023-05-24T00:33:49.582Z,27.10
2023-05-24T00:34:49.589Z,27.07
2023-05-24T00:35:49.584Z,27.07
2023-05-24T00:36:49.589Z,27.02
2023-05-24T00:37:49.588Z,27.06
2023-05-24T00:38:49.596Z,27.12
2023-05-24T00:39:49.606Z,27.10
2023-05-24T00:40:49.589Z,27.13
2023-05-24T00:41:49.582Z,27.06
2023-05-24T00:42:49.588Z,27.07
2023-05-24T00:43:49.584Z,27.06
2023-05-24T00:44:49.592Z,27.09
2023-05-24T00:45:49.591Z,27.09
2023-05-24T00:46:49.590Z,27.06
2023-05-24T00:47:49.596Z,27.09
2023-05-24T00:48:49.594Z,27.09
2023-05-24T00:49:49.584Z,27.10
2023-05-24T00:50:49.601Z,27.14
2023-05-24T00:51:49.586Z,27.06
2023-05-24T00:52:49.595Z,27.12
2023-05-24T00:53:49.606Z,27.13
2023-05-24T00:54:49.599Z,27.17
2023-05-24T00:55:49.609Z,27.09
2023-05-24T00:56:49.596Z,27.18
2023-05-24T00:57:49.591Z,27.12
2023-05-24T00:58:49.588Z,27.10
2023-05-24T00:59:49.582Z,27.17
2023-05-24T01:00:49.593Z,27.12
2023-05-24T01:01:49.622Z,27.13
2023-05-24T01:02:49.699Z,27.07
2023-05-24T01:03:49.726Z,27.06
2023-05-24T01:04:49.628Z,27.09
2023-05-24T01:05:49.585Z,27.09
2023-05-24T01:06:49.592Z,27.18
2023-05-24T01:07:49.594Z,27.18
2023-05-24T01:08:49.597Z,27.14
2023-05-24T01:09:49.589Z,27.07
2023-05-24T01:10:49.596Z,27.13
2023-05-24T01:11:49.629Z,27.06
2023-05-24T01:12:49.599Z,27.09
2023-05-24T01:13:49.589Z,27.17
2023-05-24T01:14:49.598Z,27.19
2023-05-24T01:15:49.605Z,27.19
2023-05-24T01:16:49.598Z,27.06
2023-05-24T01:17:49.614Z,27.09
2023-05-24T01:18:49.600Z,27.07
2023-05-24T01:19:49.709Z,27.13
2023-05-24T01:20:49.767Z,27.12
2023-05-24T01:21:49.592Z,27.12
2023-05-24T01:22:49.607Z,27.18
2023-05-24T01:23:49.592Z,27.12
2023-05-24T01:24:49.598Z,27.14
2023-05-24T01:25:49.602Z,27.03
2023-05-24T01:26:49.598Z,27.17
2023-05-24T01:27:49.610Z,27.10
2023-05-24T01:28:49.596Z,27.14
2023-05-24T01:29:49.591Z,27.07
2023-05-24T01:30:49.599Z,27.18
2023-05-24T01:31:49.615Z,27.14
2023-05-24T01:32:49.613Z,27.13
2023-05-24T01:33:49.618Z,27.12
2023-05-24T01:34:49.604Z,27.12
2023-05-24T01:35:49.589Z,27.12
2023-05-24T01:36:49.605Z,27.06
2023-05-24T01:37:49.598Z,27.09
2023-05-24T01:38:49.605Z,27.12
2023-05-24T01:39:49.590Z,27.07
2023-05-24T01:40:49.596Z,27.17
2023-05-24T01:41:49.591Z,27.14
2023-05-24T01:42:49.594Z,27.18
2023-05-24T01:43:49.612Z,27.14
2023-05-24T01:44:49.598Z,27.13
2023-05-24T01:45:49.588Z,27.07
2023-05-24T01:46:49.648Z,27.09
2023-05-24T01:47:49.619Z,27.14
2023-05-24T01:48:49.595Z,27.10
2023-05-24T01:49:49.594Z,27.14
2023-05-24T01:50:49.596Z,27.13
2023-05-24T01:51:49.626Z,27.17
2023-05-24T01:52:49.593Z,27.18
2023-05-24T01:53:49.613Z,27.03
2023-05-24T01:54:49.617Z,27.06
2023-05-24T01:55:49.587Z,27.17
2023-05-24T01:56:49.599Z,27.13
2023-05-24T01:57:49.588Z,27.06
2023-05-24T01:58:49.595Z,27.09
2023-05-24T01:59:49.621Z,27.10
2023-05-24T02:00:49.662Z,27.13
2023-05-24T02:01:49.616Z,27.12
2023-05-24T02:02:49.724Z,27.10
2023-05-24T02:03:49.588Z,27.04
2023-05-24T02:04:49.596Z,27.13
2023-05-24T02:05:49.586Z,27.12
2023-05-24T02:06:49.614Z,27.12
2023-05-24T02:07:49.604Z,27.10
2023-05-24T02:08:49.596Z,27.09
2023-05-24T02:09:49.590Z,27.09
2023-05-24T02:10:49.598Z,27.06
2023-05-24T02:11:49.603Z,27.14
2023-05-24T02:12:49.595Z,27.07
2023-05-24T02:13:49.589Z,27.10
2023-05-24T02:14:49.596Z,27.09
2023-05-24T02:15:49.621Z,27.04
2023-05-24T02:16:49.629Z,27.07
2023-05-24T02:17:49.644Z,27.07
2023-05-24T02:18:49.597Z,27.12
2023-05-24T02:19:49.629Z,27.10
2023-05-24T02:20:49.625Z,27.12
2023-05-24T02:21:49.594Z,27.09
2023-05-24T02:22:49.611Z,27.12
2023-05-24T02:23:49.605Z,27.06
2023-05-24T02:24:49.608Z,27.10
2023-05-24T02:25:49.594Z,27.09
2023-05-24T02:26:49.605Z,27.10
2023-05-24T02:27:49.591Z,27.09
2023-05-24T02:28:49.604Z,27.12
2023-05-24T02:29:49.591Z,27.06
2023-05-24T02:30:49.624Z,27.06
2023-05-24T02:31:49.621Z,27.09
2023-05-24T02:32:49.615Z,27.06
2023-05-24T02:33:49.595Z,27.12
2023-05-24T02:34:49.602Z,27.13
2023-05-24T02:35:49.603Z,27.04
2023-05-24T02:36:49.601Z,27.13
2023-05-24T02:37:49.594Z,27.09
2023-05-24T02:38:49.599Z,27.10
2023-05-24T02:39:49.595Z,27.12
2023-05-24T02:40:49.602Z,27.10
2023-05-24T02:41:49.593Z,27.09
2023-05-24T02:42:49.610Z,27.06
2023-05-24T02:43:49.599Z,27.12
2023-05-24T02:44:49.609Z,27.10
2023-05-24T02:45:49.630Z,27.13
2023-05-24T02:46:49.630Z,27.10
2023-05-24T02:47:49.660Z,27.14
2023-05-24T02:48:49.631Z,27.09
2023-05-24T02:49:49.595Z,27.07
2023-05-24T02:50:49.605Z,27.06
2023-05-24T02:51:49.593Z,27.12
2023-05-24T02:52:49.598Z,27.18
2023-05-24T02:53:49.589Z,27.06
2023-05-24T02:54:49.599Z,27.13
2023-05-24T02:55:49.592Z,27.12
2023-05-24T02:56:49.604Z,27.14
2023-05-24T02:57:49.593Z,27.09
2023-05-24T02:58:49.610Z,27.12
2023-05-24T02:59:49.599Z,27.12
2023-05-24T03:00:49.597Z,27.14
2023-05-24T03:01:49.663Z,27.14
2023-05-24T03:02:49.678Z,27.09
2023-05-24T03:03:49.732Z,27.13
2023-05-24T03:04:49.597Z,27.09
2023-05-24T03:05:49.609Z,27.12
2023-05-24T03:06:49.608Z,27.10
2023-05-24T03:07:49.602Z,27.13
2023-05-24T03:08:49.645Z,27.12
2023-05-24T03:09:49.591Z,27.07
2023-05-24T03:10:49.608Z,27.13
2023-05-24T03:11:49.595Z,27.13
2023-05-24T03:12:49.604Z,27.13
2023-05-24T03:13:49.611Z,27.03
2023-05-24T03:14:49.602Z,27.09
2023-05-24T03:15:49.652Z,27.13
2023-05-24T03:16:49.597Z,27.12
2023-05-24T03:17:49.628Z,27.12
2023-05-24T03:18:49.601Z,27.06
2023-05-24T03:19:49.643Z,27.06
2023-05-24T03:20:49.600Z,27.07
2023-05-24T03:21:49.599Z,27.10
2023-05-24T03:22:49.608Z,27.10
2023-05-24T03:23:49.600Z,27.12
2023-05-24T03:24:49.598Z,27.10
2023-05-24T03:25:49.602Z,27.10
2023-05-24T03:26:49.604Z,27.07
2023-05-24T03:27:49.594Z,27.12
2023-05-24T03:28:49.603Z,27.10
2023-05-24T03:29:49.594Z,27.04
2023-05-24T03:30:49.617Z,27.12
2023-05-24T03:31:49.635Z,27.13
2023-05-24T03:32:49.618Z,27.09
2023-05-24T03:33:49.615Z,27.09
2023-05-24T03:34:49.604Z,27.13
2023-05-24T03:35:49.618Z,27.09
2023-05-24T03:36:49.617Z,27.12
2023-05-24T03:37:49.601Z,27.09
2023-05-24T03:38:49.610Z,27.10
2023-05-24T03:39:49.596Z,27.09
2023-05-24T03:40:49.604Z,27.02
2023-05-24T03:41:49.603Z,27.09
2023-05-24T03:42:49.602Z,27.13
2023-05-24T03:43:49.602Z,27.07
2023-05-24T03:44:49.604Z,27.10
2023-05-24T03:45:49.641Z,27.07
2023-05-24T03:46:49.610Z,27.12
2023-05-24T03:47:49.615Z,27.07
2023-05-24T03:48:49.627Z,27.09
2023-05-24T03:49:49.610Z,27.06
2023-05-24T03:50:49.606Z,27.06
2023-05-24T03:51:49.623Z,27.09
2023-05-24T03:52:49.603Z,27.09
2023-05-24T03:53:49.595Z,27.09
2023-05-24T03:54:49.607Z,27.12
2023-05-24T03:55:49.617Z,27.12
2023-05-24T03:56:49.612Z,27.09
2023-05-24T03:57:49.596Z,27.03
2023-05-24T03:58:49.601Z,27.10
2023-05-24T03:59:49.601Z,27.04
2023-05-24T04:00:49.608Z,27.12
2023-05-24T04:01:49.623Z,27.06
2023-05-24T04:02:49.832Z,27.12
2023-05-24T04:03:49.655Z,27.13
2023-05-24T04:04:49.607Z,27.10
2023-05-24T04:05:49.596Z,27.09
2023-05-24T04:06:49.602Z,27.13
2023-05-24T04:07:49.616Z,27.04
2023-05-24T04:08:49.607Z,27.13
2023-05-24T04:09:49.593Z,27.06
2023-05-24T04:10:49.602Z,27.10
2023-05-24T04:11:49.598Z,27.04
2023-05-24T04:12:49.608Z,27.13
2023-05-24T04:13:49.596Z,27.13
2023-05-24T04:14:49.614Z,27.14
2023-05-24T04:15:49.595Z,27.10
2023-05-24T04:16:49.629Z,27.06
2023-05-24T04:17:49.668Z,27.06
2023-05-24T04:18:49.695Z,27.09
2023-05-24T04:19:49.650Z,27.14
2023-05-24T04:20:49.602Z,27.13
2023-05-24T04:21:49.599Z,27.07
2023-05-24T04:22:49.604Z,27.10
2023-05-24T04:23:49.618Z,27.06
2023-05-24T04:24:49.661Z,27.07
2023-05-24T04:25:49.617Z,27.10
2023-05-24T04:26:49.606Z,27.10
2023-05-24T04:27:49.596Z,27.10
2023-05-24T04:28:49.601Z,27.13
2023-05-24T04:29:49.604Z,27.12
2023-05-24T04:30:49.600Z,27.06
2023-05-24T04:31:49.650Z,27.09
2023-05-24T04:32:49.650Z,27.04
2023-05-24T04:33:49.594Z,27.02
2023-05-24T04:34:49.604Z,27.04
2023-05-24T04:35:49.608Z,27.09
2023-05-24T04:36:49.603Z,27.13
2023-05-24T04:37:49.614Z,27.02
2023-05-24T04:38:49.604Z,27.14
2023-05-24T04:39:49.621Z,27.18
2023-05-24T04:40:49.607Z,27.14
2023-05-24T04:41:49.600Z,27.10
2023-05-24T04:42:49.606Z,27.12
2023-05-24T04:43:49.596Z,27.12
2023-05-24T04:44:49.608Z,27.17
2023-05-24T04:45:49.604Z,27.09
2023-05-24T04:46:49.653Z,27.13
2023-05-24T04:47:49.630Z,27.13
2023-05-24T04:48:49.600Z,27.12
2023-05-24T04:49:49.607Z,27.13
2023-05-24T04:50:49.600Z,27.17
2023-05-24T04:51:49.610Z,27.18
2023-05-24T04:52:49.611Z,27.19
2023-05-24T04:53:49.636Z,27.21
2023-05-24T04:54:49.603Z,27.19
2023-05-24T04:55:49.631Z,27.25
2023-05-24T04:56:49.596Z,27.24
2023-05-24T04:57:49.619Z,27.19
2023-05-24T04:58:49.601Z,27.19
2023-05-24T04:59:49.630Z,27.18
2023-05-24T05:00:49.599Z,27.27
2023-05-24T05:01:49.625Z,27.28
2023-05-24T05:02:49.652Z,27.25
2023-05-24T05:03:49.668Z,27.22
2023-05-24T05:04:49.598Z,27.22
2023-05-24T05:05:49.616Z,27.27
2023-05-24T05:06:49.597Z,27.29
2023-05-24T05:07:49.614Z,27.32
2023-05-24T05:08:49.599Z,27.36
2023-05-24T05:09:49.613Z,27.34
2023-05-24T05:10:49.601Z,27.36
2023-05-24T05:11:49.721Z,27.40
2023-05-24T05:12:49.602Z,27.37
2023-05-24T05:13:49.609Z,27.31
2023-05-24T05:14:49.612Z,27.36
2023-05-24T05:15:49.617Z,27.41
2023-05-24T05:16:49.772Z,27.31
2023-05-24T05:17:49.651Z,27.34
2023-05-24T05:18:49.613Z,27.43
2023-05-24T05:19:49.647Z,27.51
2023-05-24T05:20:49.629Z,27.43
2023-05-24T05:21:49.617Z,27.46
2023-05-24T05:22:49.622Z,27.39
2023-05-24T05:23:49.620Z,27.40
2023-05-24T05:24:49.598Z,27.40
2023-05-24T05:25:49.611Z,27.41
2023-05-24T05:26:49.603Z,27.41
2023-05-24T05:27:49.637Z,27.46
2023-05-24T05:28:49.603Z,27.59
2023-05-24T05:29:49.622Z,27.47
2023-05-24T05:30:49.604Z,27.54
2023-05-24T05:31:49.642Z,27.59
2023-05-24T05:32:49.750Z,27.55
2023-05-24T05:33:49.616Z,27.57
2023-05-24T05:34:49.604Z,27.46
2023-05-24T05:35:49.609Z,27.55
2023-05-24T05:36:49.618Z,27.54
2023-05-24T05:37:49.614Z,27.57
2023-05-24T05:38:49.606Z,27.51
2023-05-24T05:39:49.621Z,27.34
2023-05-24T05:40:49.608Z,27.41
2023-05-24T05:41:49.624Z,27.43
2023-05-24T05:42:49.622Z,27.43
2023-05-24T05:43:49.642Z,27.40
2023-05-24T05:44:49.608Z,27.46
2023-05-24T05:45:49.649Z,27.28
2023-05-24T05:46:49.608Z,27.40
2023-05-24T05:47:49.633Z,27.34
2023-05-24T05:48:49.608Z,27.43
2023-05-24T05:49:49.620Z,27.34
2023-05-24T05:50:49.609Z,27.41
2023-05-24T05:51:49.618Z,27.43
2023-05-24T05:52:49.618Z,27.44
2023-05-24T05:53:49.647Z,27.49
2023-05-24T05:54:49.618Z,27.28
2023-05-24T05:55:49.616Z,27.36
2023-05-24T05:56:49.616Z,27.34
2023-05-24T05:57:49.618Z,27.36
2023-05-24T05:58:49.619Z,27.31
2023-05-24T05:59:49.640Z,27.39
2023-05-24T06:00:49.610Z,27.32
2023-05-24T06:01:49.614Z,27.34
2023-05-24T06:02:49.735Z,27.21
2023-05-24T06:03:49.735Z,27.27
2023-05-24T06:04:49.638Z,27.21
2023-05-24T06:05:49.625Z,27.25
2023-05-24T06:06:49.964Z,27.28
2023-05-24T06:07:49.616Z,27.14
2023-05-24T06:08:49.609Z,27.17
2023-05-24T06:09:49.646Z,27.13
2023-05-24T06:10:52.064Z,27.12
2023-05-24T06:11:49.619Z,27.07
2023-05-24T06:12:49.620Z,27.12
2023-05-24T06:13:49.623Z,27.09
2023-05-24T06:14:49.606Z,27.10
2023-05-24T06:15:49.678Z,27.13
2023-05-24T06:16:49.658Z,27.12
2023-05-24T06:17:49.707Z,27.03
2023-05-24T06:19:01.293Z,27.02
2023-05-24T06:19:49.643Z,27.02
2023-05-24T06:20:49.655Z,27.03
2023-05-24T06:21:49.616Z,27.03
2023-05-24T06:22:49.609Z,27.02
2023-05-24T06:23:49.615Z,27.07
2023-05-24T06:24:49.606Z,27.00
2023-05-24T06:25:49.622Z,27.04
2023-05-24T06:26:49.614Z,27.06
2023-05-24T06:27:49.613Z,27.07
2023-05-24T06:28:49.608Z,27.02
2023-05-24T06:29:49.726Z,27.09
2023-05-24T06:30:49.608Z,26.99
2023-05-24T06:31:49.997Z,27.10
2023-05-24T06:32:49.686Z,27.12
2023-05-24T06:34:02.669Z,27.13
2023-05-24T06:34:49.609Z,27.13
2023-05-24T06:35:49.625Z,27.14
2023-05-24T06:36:49.612Z,27.14
2023-05-24T06:37:49.624Z,27.12
2023-05-24T06:38:49.608Z,27.14
2023-05-24T06:39:49.631Z,27.09
2023-05-24T06:40:49.627Z,27.10
2023-05-24T06:41:49.621Z,27.03
2023-05-24T06:42:49.628Z,27.09
2023-05-24T06:43:49.689Z,27.17
2023-05-24T06:44:49.621Z,27.18
2023-05-24T06:45:49.660Z,27.13
2023-05-24T06:46:49.671Z,27.12
2023-05-24T06:47:49.900Z,27.12
2023-05-24T06:48:49.789Z,27.13
2023-05-24T06:49:49.638Z,27.10
2023-05-24T06:50:49.625Z,27.18
2023-05-24T06:51:49.648Z,27.10
2023-05-24T06:52:49.715Z,27.13
2023-05-24T06:53:49.745Z,27.12
2023-05-24T06:54:49.611Z,27.17
2023-05-24T06:55:49.740Z,27.18
2023-05-24T06:56:49.688Z,27.14
2023-05-24T06:57:49.715Z,27.17
2023-05-24T06:58:49.619Z,27.14
2023-05-24T06:59:49.622Z,27.18
2023-05-24T07:00:49.640Z,27.10
2023-05-24T07:01:49.761Z,27.10
2023-05-24T07:02:49.639Z,27.14
2023-05-24T07:03:49.654Z,27.13
2023-05-24T07:04:49.684Z,27.06
2023-05-24T07:05:49.620Z,27.17
2023-05-24T07:06:49.610Z,27.12
2023-05-24T07:07:49.620Z,27.18
2023-05-24T07:08:49.613Z,27.06
2023-05-24T07:09:49.616Z,27.09
2023-05-24T07:10:49.624Z,27.19
2023-05-24T07:11:49.662Z,27.12
2023-05-24T07:12:49.606Z,27.18
2023-05-24T07:13:49.618Z,27.19
2023-05-24T07:14:49.609Z,27.06
2023-05-24T07:15:49.621Z,27.09
2023-05-24T07:16:49.648Z,27.03
2023-05-24T07:17:49.696Z,27.06
2023-05-24T07:18:49.611Z,27.17
2023-05-24T07:19:49.794Z,27.02
2023-05-24T07:20:49.661Z,27.09
2023-05-24T07:21:49.627Z,27.10
2023-05-24T07:22:49.628Z,27.14
2023-05-24T07:23:49.617Z,27.12
2023-05-24T07:24:49.609Z,27.13
2023-05-24T07:25:49.617Z,27.06
2023-05-24T07:26:49.607Z,27.09
2023-05-24T07:27:49.618Z,27.07
2023-05-24T07:28:49.614Z,27.12
2023-05-24T07:29:49.619Z,27.06
2023-05-24T07:30:49.767Z,27.10
2023-05-24T07:31:49.675Z,27.07
2023-05-24T07:32:49.762Z,27.12
2023-05-24T07:33:49.620Z,27.06
2023-05-24T07:34:49.614Z,27.13
2023-05-24T07:35:49.691Z,27.03
2023-05-24T07:36:49.640Z,27.12
2023-05-24T07:37:49.616Z,27.10
2023-05-24T07:38:49.606Z,27.12
2023-05-24T07:39:49.617Z,27.07
2023-05-24T07:40:49.628Z,27.06
2023-05-24T07:41:49.618Z,27.06
2023-05-24T07:42:49.619Z,27.03
2023-05-24T07:43:49.620Z,27.09
2023-05-24T07:44:49.610Z,27.12
2023-05-24T07:45:49.620Z,27.09
2023-05-24T07:46:49.672Z,27.13
2023-05-24T07:47:49.676Z,27.07
2023-05-24T07:48:49.613Z,27.10
2023-05-24T07:49:49.621Z,27.04
2023-05-24T07:50:49.630Z,27.07
2023-05-24T07:51:49.649Z,27.10
2023-05-24T07:52:49.625Z,27.06
2023-05-24T07:53:49.626Z,27.09
2023-05-24T07:54:49.617Z,27.10
2023-05-24T07:55:49.629Z,27.04
2023-05-24T07:56:49.621Z,27.07
2023-05-24T07:57:49.618Z,27.09
2023-05-24T07:58:49.613Z,27.04
2023-05-24T07:59:49.618Z,27.10
2023-05-24T08:00:49.614Z,27.04
2023-05-24T08:01:49.622Z,27.12
2023-05-24T08:02:49.699Z,27.04
2023-05-24T08:03:49.822Z,27.02
2023-05-24T08:04:49.629Z,27.10
2023-05-24T08:05:49.622Z,27.07
2023-05-24T08:06:49.647Z,27.07
2023-05-24T08:07:49.640Z,27.06
2023-05-24T08:08:49.619Z,27.06
2023-05-24T08:09:49.628Z,27.04
2023-05-24T08:10:49.610Z,27.04
2023-05-24T08:11:49.621Z,27.03
2023-05-24T08:12:49.615Z,27.12
2023-05-24T08:13:49.618Z,27.07
2023-05-24T08:14:49.614Z,27.02
2023-05-24T08:15:49.614Z,27.00
2023-05-24T08:16:49.643Z,26.97
2023-05-24T08:17:49.642Z,27.04
2023-05-24T08:18:50.901Z,26.95
2023-05-24T08:19:49.646Z,26.94
2023-05-24T08:20:49.657Z,27.00
2023-05-24T08:21:49.619Z,26.97
2023-05-24T08:22:49.621Z,26.97
2023-05-24T08:23:49.660Z,26.91
2023-05-24T08:24:49.607Z,26.97
2023-05-24T08:25:49.625Z,26.97
2023-05-24T08:26:49.606Z,26.97
2023-05-24T08:27:49.662Z,26.89
2023-05-24T08:28:49.609Z,26.91
2023-05-24T08:29:49.625Z,26.89
2023-05-24T08:30:49.624Z,26.81
2023-05-24T08:31:49.682Z,26.82
2023-05-24T08:32:49.614Z,26.82
2023-05-24T08:33:49.620Z,26.84
2023-05-24T08:34:49.607Z,26.82
2023-05-24T08:35:49.620Z,26.84
2023-05-24T08:36:49.619Z,26.89
2023-05-24T08:37:49.925Z,26.84
2023-05-24T08:38:49.606Z,26.77
2023-05-24T08:39:49.634Z,26.85
2023-05-24T08:40:49.607Z,26.82
2023-05-24T08:42:07.204Z,26.75
2023-05-24T08:42:49.621Z,26.76
2023-05-24T08:43:49.618Z,26.70
2023-05-24T08:44:49.615Z,26.73
2023-05-24T08:45:49.634Z,26.75
2023-05-24T08:46:49.626Z,26.77
2023-05-24T08:47:49.667Z,26.76
2023-05-24T08:48:49.730Z,26.72
2023-05-24T08:49:49.615Z,26.65
2023-05-24T08:50:49.606Z,26.72
2023-05-24T08:51:49.650Z,26.80
2023-05-24T08:52:49.609Z,26.80
2023-05-24T08:53:49.615Z,26.67
2023-05-24T08:54:49.613Z,26.75
2023-05-24T08:55:49.647Z,26.72
2023-05-24T08:56:49.608Z,26.67
2023-05-24T08:57:49.618Z,26.70
2023-05-24T08:58:49.605Z,26.75
2023-05-24T08:59:49.618Z,26.75
2023-05-24T09:00:49.605Z,26.75
2023-05-24T09:01:49.706Z,26.77
2023-05-24T09:02:49.641Z,26.76
2023-05-24T09:03:49.651Z,26.75
2023-05-24T09:04:49.621Z,26.70
2023-05-24T09:05:49.608Z,26.69
2023-05-24T09:06:49.613Z,26.70
2023-05-24T09:07:49.611Z,26.75
2023-05-24T09:08:49.631Z,26.73
2023-05-24T09:09:49.609Z,26.70
2023-05-24T09:10:55.415Z,26.69
2023-05-24T09:11:49.677Z,26.70
2023-05-24T09:12:49.620Z,26.84
2023-05-24T09:13:49.612Z,26.72
2023-05-24T09:14:49.614Z,26.72
2023-05-24T09:15:49.671Z,26.73
2023-05-24T09:16:49.611Z,26.75
2023-05-24T09:17:49.639Z,26.75
2023-05-24T09:18:49.620Z,26.75
2023-05-24T09:19:49.643Z,26.69
2023-05-24T09:20:49.743Z,26.75
2023-05-24T09:21:49.665Z,26.76
2023-05-24T09:22:49.609Z,26.67
2023-05-24T09:23:49.613Z,26.73
2023-05-24T09:24:49.614Z,26.65
2023-05-24T09:25:49.602Z,26.72
2023-05-24T09:26:49.606Z,26.85
2023-05-24T09:27:49.642Z,26.72
2023-05-24T09:28:49.603Z,26.76
2023-05-24T09:29:49.613Z,26.76
2023-05-24T09:30:49.609Z,26.75
2023-05-24T09:31:49.666Z,26.76
2023-05-24T09:32:49.674Z,26.80
2023-05-24T09:33:49.605Z,26.77
2023-05-24T09:34:49.603Z,26.82
2023-05-24T09:35:49.599Z,26.80
2023-05-24T09:36:49.608Z,26.73
2023-05-24T09:37:49.595Z,26.77
2023-05-24T09:38:49.605Z,26.81
2023-05-24T09:39:49.645Z,26.87
2023-05-24T09:40:49.603Z,26.82
2023-05-24T09:41:49.603Z,26.91
2023-05-24T09:42:49.605Z,26.85
2023-05-24T09:43:49.779Z,26.81
2023-05-24T09:44:49.606Z,26.84
2023-05-24T09:45:49.592Z,26.82
2023-05-24T09:46:49.674Z,26.82
2023-05-24T09:47:49.608Z,26.88
2023-05-24T09:48:49.601Z,26.89
2023-05-24T09:49:49.595Z,26.84
2023-05-24T09:50:49.602Z,26.84
2023-05-24T09:51:49.719Z,26.80
2023-05-24T09:52:49.597Z,26.80
2023-05-24T09:53:49.598Z,26.85
2023-05-24T09:54:49.599Z,26.87
2023-05-24T09:55:49.597Z,26.91
2023-05-24T09:56:49.602Z,26.92
2023-05-24T09:57:49.597Z,26.92
2023-05-24T09:58:49.601Z,26.89
2023-05-24T09:59:49.616Z,26.94
2023-05-24T10:00:49.626Z,26.88
2023-05-24T10:01:49.750Z,26.91
2023-05-24T10:02:52.991Z,27.00
2023-05-24T10:03:49.623Z,26.97
2023-05-24T10:04:49.720Z,26.94
2023-05-24T10:05:49.597Z,26.94
2023-05-24T10:06:49.605Z,26.99
2023-05-24T10:07:49.598Z,27.02
2023-05-24T10:08:49.601Z,26.94
2023-05-24T10:09:49.597Z,26.94
2023-05-24T10:10:49.601Z,26.99
2023-05-24T10:11:49.593Z,26.94
2023-05-24T10:12:49.602Z,26.88
2023-05-24T10:13:49.603Z,26.99
2023-05-24T10:14:49.601Z,26.95
2023-05-24T10:15:49.617Z,26.92
2023-05-24T10:16:49.707Z,26.95
2023-05-24T10:17:49.671Z,27.06
2023-05-24T10:18:49.611Z,27.04
2023-05-24T10:19:49.644Z,27.03
2023-05-24T10:20:49.985Z,27.02
2023-05-24T10:21:49.635Z,27.06
2023-05-24T10:22:49.610Z,27.04
2023-05-24T10:23:49.600Z,26.99
2023-05-24T10:24:49.605Z,27.03
2023-05-24T10:25:49.595Z,27.02
2023-05-24T10:26:49.617Z,26.99
2023-05-24T10:27:49.597Z,27.04
2023-05-24T10:28:49.609Z,27.07
2023-05-24T10:29:49.602Z,27.06
2023-05-24T10:30:49.657Z,27.03
2023-05-24T10:31:49.763Z,27.07
2023-05-24T10:32:49.630Z,27.03
2023-05-24T10:33:49.594Z,27.02
2023-05-24T10:34:49.604Z,27.12
2023-05-24T10:35:49.596Z,27.06
2023-05-24T10:36:49.600Z,27.06
2023-05-24T10:37:49.592Z,27.12
2023-05-24T10:38:49.608Z,27.14
2023-05-24T10:39:49.596Z,27.03
2023-05-24T10:40:49.812Z,27.09
2023-05-24T10:41:49.592Z,27.10
2023-05-24T10:42:49.605Z,27.09
2023-05-24T10:44:04.900Z,27.18
2023-05-24T10:44:49.600Z,27.10
2023-05-24T10:45:49.706Z,27.18
2023-05-24T10:46:49.646Z,27.18
2023-05-24T10:47:49.681Z,27.14
2023-05-24T10:48:49.599Z,27.14
2023-05-24T10:49:49.591Z,27.17
2023-05-24T10:50:49.598Z,27.10
2023-05-24T10:51:49.588Z,27.10
2023-05-24T10:52:49.600Z,27.03
2023-05-24T10:53:49.595Z,27.09
2023-05-24T10:55:02.849Z,27.10
2023-05-24T10:55:49.588Z,27.12
2023-05-24T10:56:49.617Z,27.06
2023-05-24T10:57:49.592Z,27.17
2023-05-24T10:58:49.600Z,27.17
2023-05-24T10:59:49.593Z,27.13
2023-05-24T11:00:49.815Z,27.13
2023-05-24T11:01:49.628Z,27.09
2023-05-24T11:02:49.649Z,27.18
2023-05-24T11:03:49.616Z,27.13
2023-05-24T11:04:49.654Z,27.10
2023-05-24T11:05:49.653Z,27.10
2023-05-24T11:06:49.648Z,27.10
2023-05-24T11:07:49.601Z,27.03
2023-05-24T11:08:49.607Z,27.07
2023-05-24T11:09:49.593Z,27.06
2023-05-24T11:10:49.612Z,27.07
2023-05-24T11:11:49.594Z,27.02
2023-05-24T11:12:49.598Z,26.99
2023-05-24T11:13:49.635Z,26.89
2023-05-24T11:14:49.606Z,26.99
2023-05-24T11:15:49.645Z,26.94
2023-05-24T11:16:49.725Z,26.97
2023-05-24T11:17:49.617Z,26.95
2023-05-24T11:18:49.601Z,26.94
2023-05-24T11:19:49.770Z,26.85
2023-05-24T11:20:49.655Z,26.84
2023-05-24T11:21:49.594Z,26.87
2023-05-24T11:22:49.597Z,26.85
2023-05-24T11:23:49.597Z,26.84
2023-05-24T11:24:49.600Z,26.76
2023-05-24T11:25:49.594Z,26.73
2023-05-24T11:26:49.607Z,26.81
2023-05-24T11:27:49.653Z,26.80
2023-05-24T11:28:49.603Z,26.77
2023-05-24T11:29:49.601Z,26.72
2023-05-24T11:30:49.596Z,26.72
2023-05-24T11:31:49.714Z,26.80
2023-05-24T11:32:49.644Z,26.72
2023-05-24T11:33:49.592Z,26.72
2023-05-24T11:34:49.600Z,26.76
2023-05-24T11:35:49.696Z,26.73
2023-05-24T11:36:49.594Z,26.75
2023-05-24T11:37:49.589Z,26.67
2023-05-24T11:38:49.593Z,26.70
2023-05-24T11:39:49.588Z,26.69
2023-05-24T11:40:49.594Z,26.69
2023-05-24T11:41:49.586Z,26.75
2023-05-24T11:42:49.600Z,26.72
2023-05-24T11:43:49.585Z,26.73
2023-05-24T11:44:49.596Z,26.72
2023-05-24T11:45:49.663Z,26.76
2023-05-24T11:46:49.591Z,26.73
2023-05-24T11:47:49.609Z,26.77
2023-05-24T11:48:49.591Z,26.69
2023-05-24T11:49:49.584Z,26.76
2023-05-24T11:50:50.376Z,26.72
2023-05-24T11:51:49.675Z,26.77
2023-05-24T11:52:49.589Z,26.80
2023-05-24T11:53:50.830Z,26.76
2023-05-24T11:54:49.598Z,26.76
2023-05-24T11:55:49.589Z,26.73
2023-05-24T11:56:49.595Z,26.76
2023-05-24T11:57:49.583Z,26.88
2023-05-24T11:58:49.622Z,26.75
2023-05-24T11:59:49.606Z,26.80
2023-05-24T12:00:49.590Z,26.73
2023-05-24T12:01:49.586Z,26.75
2023-05-24T12:02:49.683Z,26.76
2023-05-24T12:03:49.788Z,26.81
2023-05-24T12:04:49.620Z,26.73
2023-05-24T12:05:49.584Z,26.80
2023-05-24T12:06:49.593Z,26.82
2023-05-24T12:07:49.605Z,26.73
2023-05-24T12:08:49.613Z,26.77
2023-05-24T12:09:49.581Z,26.81
2023-05-24T12:10:49.589Z,26.80
2023-05-24T12:11:49.583Z,26.80
2023-05-24T12:12:49.599Z,26.77
2023-05-24T12:13:49.581Z,26.82
2023-05-24T12:14:49.588Z,26.91
2023-05-24T12:15:51.345Z,26.77
2023-05-24T12:16:49.599Z,26.77
2023-05-24T12:17:49.638Z,26.80
2023-05-24T12:19:02.382Z,26.85
2023-05-24T12:19:49.617Z,26.87
2023-05-24T12:20:49.639Z,26.77
2023-05-24T12:21:50.549Z,26.87
2023-05-24T12:22:49.590Z,26.91
2023-05-24T12:23:49.625Z,26.85
2023-05-24T12:24:49.584Z,26.85
2023-05-24T12:25:49.579Z,26.85
2023-05-24T12:26:49.588Z,26.82
2023-05-24T12:27:50.614Z,26.84
2023-05-24T12:28:49.585Z,26.81
2023-05-24T12:29:49.579Z,26.87
2023-05-24T12:30:49.601Z,26.81
2023-05-24T12:31:49.711Z,26.81
2023-05-24T12:32:49.596Z,26.85
2023-05-24T12:33:51.078Z,26.89
2023-05-24T12:34:49.591Z,26.88
2023-05-24T12:35:49.574Z,26.89
2023-05-24T12:36:49.586Z,27.02
2023-05-24T12:37:49.582Z,26.94
2023-05-24T12:38:49.581Z,26.92
2023-05-24T12:39:50.839Z,27.00
2023-05-24T12:41:00.098Z,26.95
2023-05-24T12:41:49.576Z,27.00
2023-05-24T12:42:49.579Z,26.95
2023-05-24T12:43:49.574Z,26.97
2023-05-24T12:44:49.580Z,27.06
2023-05-24T12:45:50.722Z,27.00
2023-05-24T12:46:49.603Z,26.99
2023-05-24T12:47:49.602Z,27.07
2023-05-24T12:48:49.579Z,27.06
2023-05-24T12:49:49.576Z,27.06
2023-05-24T12:50:49.578Z,27.03
2023-05-24T12:51:49.721Z,27.02
2023-05-24T12:52:49.578Z,27.12